createdAt,value
2019-01-17T14:23:08.813Z,2.80
2019-01-17T14:27:14.103Z,2.53
2019-01-17T14:31:18.281Z,2.70
2019-01-17T14:35:21.998Z,2.53
2019-01-17T14:39:25.691Z,2.20
2019-01-17T14:43:29.359Z,2.53
2019-01-17T14:47:32.999Z,2.83
2019-01-17T14:51:36.694Z,2.43
2019-01-17T14:55:40.349Z,3.80
2019-01-17T14:59:44.368Z,2.57
2019-01-17T15:03:48.132Z,3.03
2019-01-17T15:07:51.774Z,2.50
2019-01-17T15:11:55.471Z,2.80
2019-01-17T15:15:59.136Z,1.93
2019-01-17T15:20:02.790Z,2.13
2019-01-17T15:24:06.553Z,1.27
2019-01-17T15:28:10.455Z,1.27
2019-01-17T15:32:14.099Z,1.80
2019-01-17T15:36:17.794Z,1.40
2019-01-17T15:40:31.562Z,2.47
2019-01-17T15:44:35.604Z,2.73
2019-01-17T15:48:39.274Z,1.50
2019-01-17T15:52:42.919Z,2.23
2019-01-17T15:56:46.600Z,1.80
2019-01-17T16:00:50.250Z,2.40
2019-01-17T16:04:53.917Z,2.47
2019-01-17T16:08:57.692Z,2.57
2019-01-17T16:13:01.318Z,2.60
2019-01-17T16:17:05.003Z,3.20
2019-01-17T16:21:08.664Z,3.13
2019-01-17T16:25:13.281Z,3.20
2019-01-17T16:29:16.979Z,2.73
2019-01-17T16:33:20.626Z,3.13
2019-01-17T16:37:24.283Z,2.93
2019-01-17T16:41:27.983Z,3.00
2019-01-17T16:45:35.470Z,2.13
2019-01-17T16:49:37.019Z,2.60
2019-01-17T16:53:40.676Z,2.43
2019-01-17T16:57:48.877Z,2.43
2019-01-17T17:01:49.702Z,2.80
2019-01-17T17:05:53.330Z,3.03
2019-01-17T17:09:56.994Z,2.70
2019-01-17T17:14:00.767Z,3.17
2019-01-17T17:18:04.566Z,3.10
2019-01-17T17:22:22.417Z,2.73
2019-01-17T17:26:26.064Z,2.47
2019-01-17T17:30:31.716Z,3.80
2019-01-17T17:34:35.420Z,2.90
2019-01-17T17:38:39.233Z,4.00
2019-01-17T17:42:42.913Z,3.03
2019-01-17T17:46:46.594Z,4.13
2019-01-17T17:50:50.330Z,2.83
2019-01-17T17:54:54.567Z,4.17
2019-01-17T17:58:58.275Z,3.60
2019-01-17T18:03:01.978Z,3.80
2019-01-17T18:07:05.768Z,3.80
2019-01-17T18:11:09.403Z,4.07
2019-01-17T18:15:13.884Z,3.90
2019-01-17T18:19:17.583Z,3.50
2019-01-17T18:23:21.288Z,3.87
2019-01-17T18:27:25.014Z,4.23
2019-01-17T18:31:28.759Z,5.30
2019-01-17T18:35:32.500Z,5.43
2019-01-17T18:39:36.192Z,6.67
2019-01-17T18:43:39.837Z,6.67
2019-01-17T18:47:43.513Z,5.90
2019-01-17T18:51:47.181Z,6.30
2019-01-17T18:55:50.855Z,7.40
2019-01-17T18:59:54.530Z,8.77
2019-01-17T19:03:58.183Z,9.37
2019-01-17T19:08:01.901Z,7.87
2019-01-17T19:12:05.937Z,9.27
2019-01-17T19:16:09.642Z,9.70
2019-01-17T19:20:14.808Z,11.30
2019-01-17T19:24:18.551Z,10.60
2019-01-17T19:28:22.665Z,9.13
2019-01-17T19:32:26.347Z,9.57
2019-01-17T19:36:30.069Z,6.77
2019-01-17T19:40:33.726Z,11.53
2019-01-17T19:44:37.418Z,11.07
2019-01-17T19:48:41.065Z,11.37
2019-01-17T19:52:44.728Z,10.97
2019-01-17T19:56:48.421Z,14.10
2019-01-17T20:00:52.117Z,17.83
2019-01-17T20:04:57.157Z,9.90
2019-01-17T20:09:00.914Z,12.87
2019-01-17T20:13:05.327Z,14.70
2019-01-17T20:17:09.078Z,11.27
2019-01-17T20:21:12.806Z,12.43
2019-01-17T20:25:16.489Z,14.53
2019-01-17T20:29:20.207Z,17.90
2019-01-17T20:33:23.885Z,13.77
2019-01-17T20:37:27.621Z,13.73
2019-01-17T20:41:31.300Z,19.47
2019-01-17T20:45:34.957Z,17.50
2019-01-17T20:49:38.673Z,19.37
2019-01-17T20:53:42.317Z,14.47
2019-01-17T20:57:47.276Z,15.97
2019-01-17T21:02:20.912Z,16.90
2019-01-17T21:06:24.564Z,17.63
2019-01-17T21:10:28.841Z,13.70
2019-01-17T21:14:32.761Z,14.93
2019-01-17T21:18:36.436Z,15.60
2019-01-17T21:22:40.125Z,17.17
2019-01-17T21:26:44.058Z,14.40
2019-01-17T21:30:47.726Z,10.23
2019-01-17T21:34:51.414Z,12.23
2019-01-17T21:38:55.093Z,10.50
2019-01-17T21:42:59.144Z,10.43
2019-01-17T21:47:02.799Z,8.87
2019-01-17T21:51:06.428Z,7.47
2019-01-17T21:55:10.146Z,8.20
2019-01-17T21:59:14.092Z,9.80
2019-01-17T22:03:17.845Z,7.90
2019-01-17T22:07:21.611Z,8.30
2019-01-17T22:11:25.300Z,9.10
2019-01-17T22:15:28.993Z,12.17
2019-01-17T22:19:32.682Z,12.87
2019-01-17T22:23:36.332Z,14.67
2019-01-17T22:27:40.033Z,16.13
2019-01-17T22:31:43.678Z,14.03
2019-01-17T22:35:47.379Z,15.33
2019-01-17T22:39:51.556Z,14.57
2019-01-17T22:43:55.268Z,22.70
2019-01-17T22:47:58.962Z,17.83
2019-01-17T22:52:02.645Z,22.80
2019-01-17T22:56:06.285Z,17.70
2019-01-17T23:00:36.483Z,17.03
2019-01-17T23:04:40.635Z,20.40
2019-01-17T23:08:44.307Z,22.77
2019-01-17T23:12:47.963Z,18.20
2019-01-17T23:16:51.628Z,14.87
2019-01-17T23:20:55.270Z,18.47
2019-01-17T23:24:59.013Z,12.97
2019-01-17T23:29:02.735Z,16.63
2019-01-17T23:33:06.370Z,15.20
2019-01-17T23:37:10.593Z,16.37
2019-01-17T23:41:14.284Z,21.37
2019-01-17T23:45:17.965Z,18.40
2019-01-17T23:49:21.658Z,16.83
2019-01-17T23:53:25.337Z,17.50
2019-01-17T23:57:29.140Z,16.37
